Aérodrome :
LOGIN :

S'inscrire | Disclaimer

   EN    FR    IT 

 










Légende :    VFR   VFR Marginal   IFR   IFR Intensif   IFR Très Intensif
Visi : 
Plafond : 
>= 8 km
>= 3000ft
5 à 8 km
1000 à 3000 ft
1500m à 5 km
500 à 1000 ft
800 à 1500m
200 à 500 ft
< 800m
< 200 ft
Symboles :   Orages  Brouillard  Fortes neiges  Fortes précipitations  Vent > 20 kt
SIGMETs :   Divers  Orages  Givrage  Turbulence  Onde Orograph.  Cendres Volcan.







- Altitude de l'aérodrome : 622 ft
- Code IATA : BRS
- Voir les cartes d'approche


EGGD - Bristol Int.

DERNIER METAR :
  • 211520Z AUTO 20010KT 9999 SCT012 BKN039 12/11 Q1007

METARs EXPIRÉS :
  • 211450Z AUTO 21011KT 9999 BKN046 12/11 Q1008
  • 211420Z AUTO 21010KT 9999 FEW021 SCT028 BKN032 12/11 Q1008
  • 211350Z AUTO 21009KT 180V250 9999 BKN012 OVC046 12/10 Q1008
  • 211320Z AUTO 21010KT 9999 BKN014 OVC029 12/10 Q1009
  • 211250Z AUTO 21010KT 9999 BKN017 BKN027 OVC039 12/09 Q1009

TAF AMD TAF EGGD
Valide du 21 à 12h jusqu'au 22 à 12h UTC


211121Z 2112/2212 21008KT 9999 BKN020
TEMPO 2112/2119 BKN010
PROB30
TEMPO 2112/2119 8000 BKN008
BECMG 2119/2122 22018G28KT BKN008
TEMPO 2120/2202 8000 BKN004
BECMG 2201/2204 FEW008 SCT015
PROB30
TEMPO 2204/2212 BKN006
PROB40
TEMPO 2210/2212 22025G38KT
ATIS : +44 1275 473 666
Pas de NOTAMs connus pour ce terrain.



MET'MAP, la Météo Aéronautique d'un coup d'oeil ! - Copyright ORBIFLY Décembre 2007 - Disclaimer

ORBIFLY MET'MAP TEAM :

Programmation & Développement : Alexandra Zaïnal
Conception & Développement : Baudouin d'Aumeries
Co-Programmation & Développement : Marc-Olivier Méhu
Soutien technique & logistique : Manuel Goepfert

Contact : metmap@orbifly.com




SOURCES & CREDITS :

   NOAA